createdAt,value
2016-05-26T00:00:05.277Z,14.04
2016-05-26T00:00:15.121Z,14.09
2016-05-26T00:00:25.277Z,13.97
2016-05-26T00:00:35.293Z,13.97
2016-05-26T00:00:45.293Z,13.92
2016-05-26T00:00:55.309Z,13.99
2016-05-26T00:01:05.311Z,14.02
2016-05-26T00:01:15.311Z,13.89
2016-05-26T00:01:25.311Z,13.96
2016-05-26T00:01:35.326Z,13.89
2016-05-26T00:01:45.326Z,13.91
2016-05-26T00:01:55.342Z,13.87
2016-05-26T00:02:05.345Z,13.88
2016-05-26T00:02:15.189Z,13.85
2016-05-26T00:02:25.360Z,13.92
2016-05-26T00:02:35.907Z,13.91
2016-05-26T00:02:45.532Z,13.89
2016-05-26T00:02:55.220Z,13.88
2016-05-26T00:03:05.956Z,13.87
2016-05-26T00:03:15.237Z,13.87
2016-05-26T00:03:25.409Z,13.88
2016-05-26T00:03:35.394Z,13.88
2016-05-26T00:03:45.394Z,13.87
2016-05-26T00:03:55.394Z,13.87
2016-05-26T00:04:05.398Z,13.75
2016-05-26T00:04:15.413Z,13.81
2016-05-26T00:04:25.413Z,13.78
2016-05-26T00:04:35.429Z,13.78
2016-05-26T00:04:45.429Z,13.79
2016-05-26T00:04:55.445Z,13.82
2016-05-26T00:05:05.431Z,13.92
2016-05-26T00:05:15.290Z,13.88
2016-05-26T00:05:25.447Z,13.91
2016-05-26T00:05:35.447Z,13.87
2016-05-26T00:05:45.306Z,13.89
2016-05-26T00:05:55.462Z,13.85
2016-05-26T00:06:05.309Z,13.89
2016-05-26T00:06:15.481Z,13.89
2016-05-26T00:06:25.496Z,13.89
2016-05-26T00:06:35.325Z,13.89
2016-05-26T00:06:45.496Z,13.89
2016-05-26T00:06:55.496Z,13.84
2016-05-26T00:07:05.498Z,13.91
2016-05-26T00:07:15.514Z,13.87
2016-05-26T00:07:25.514Z,13.85
2016-05-26T00:07:35.530Z,13.81
2016-05-26T00:07:45.514Z,13.88
2016-05-26T00:07:55.530Z,13.77
2016-05-26T00:08:05.533Z,13.79
2016-05-26T00:08:15.533Z,13.79
2016-05-26T00:08:25.533Z,13.81
2016-05-26T00:08:35.548Z,13.77
2016-05-26T00:08:45.564Z,13.78
2016-05-26T00:08:55.548Z,13.75
2016-05-26T00:09:05.567Z,13.82
2016-05-26T00:09:15.567Z,13.78
2016-05-26T00:09:25.426Z,13.81
2016-05-26T00:09:35.583Z,13.78
2016-05-26T00:09:45.426Z,13.71
2016-05-26T00:09:55.583Z,13.73
2016-05-26T00:10:05.585Z,13.67
2016-05-26T00:10:15.600Z,13.73
2016-05-26T00:10:25.616Z,13.67
2016-05-26T00:10:35.616Z,13.79
2016-05-26T00:10:45.631Z,13.71
2016-05-26T00:10:55.616Z,13.71
2016-05-26T00:11:05.619Z,13.69
2016-05-26T00:11:15.634Z,13.69
2016-05-26T00:11:25.634Z,13.63
2016-05-26T00:11:35.634Z,13.67
2016-05-26T00:11:45.650Z,13.7
2016-05-26T00:11:55.650Z,13.67
2016-05-26T00:12:05.652Z,13.66
2016-05-26T00:12:15.668Z,13.69
2016-05-26T00:12:25.668Z,13.66
2016-05-26T00:12:35.511Z,13.64
2016-05-26T00:12:45.668Z,13.62
2016-05-26T00:12:55.683Z,13.7
2016-05-26T00:13:05.686Z,13.63
2016-05-26T00:13:15.702Z,13.69
2016-05-26T00:13:25.702Z,13.59
2016-05-26T00:13:35.718Z,13.67
2016-05-26T00:13:45.702Z,13.59
2016-05-26T00:13:55.718Z,13.59
2016-05-26T00:14:05.722Z,13.59
2016-05-26T00:14:15.737Z,13.59
2016-05-26T00:14:25.737Z,13.59
2016-05-26T00:14:35.737Z,13.64
2016-05-26T00:14:45.737Z,13.62
2016-05-26T00:14:55.753Z,13.62
2016-05-26T00:15:05.770Z,13.63
2016-05-26T00:15:15.755Z,13.62
2016-05-26T00:15:25.755Z,13.62
2016-05-26T00:15:35.614Z,13.63
2016-05-26T00:15:45.770Z,13.64
2016-05-26T00:15:55.786Z,13.55
2016-05-26T00:16:05.789Z,13.55
2016-05-26T00:16:15.789Z,13.55
2016-05-26T00:16:25.633Z,13.54
2016-05-26T00:16:35.789Z,13.52
2016-05-26T00:16:45.805Z,13.64
2016-05-26T00:16:55.805Z,13.51
2016-05-26T00:17:05.822Z,13.62
2016-05-26T00:17:16.291Z,13.63
2016-05-26T00:17:25.666Z,13.62
2016-05-26T00:17:35.822Z,13.59
2016-05-26T00:17:46.229Z,13.48
2016-05-26T00:17:55.838Z,13.66
2016-05-26T00:18:05.966Z,13.49
2016-05-26T00:18:15.997Z,13.55
2016-05-26T00:18:25.982Z,13.48
2016-05-26T00:18:35.919Z,13.52
2016-05-26T00:18:45.997Z,13.55
2016-05-26T00:18:56.263Z,13.54
2016-05-26T00:19:05.985Z,13.49
2016-05-26T00:19:15.797Z,13.49
2016-05-26T00:19:25.875Z,13.54
2016-05-26T00:19:36.000Z,13.49
2016-05-26T00:19:46.016Z,13.45
2016-05-26T00:19:56.047Z,13.51
2016-05-26T00:20:06.113Z,13.55
2016-05-26T00:20:16.066Z,13.48
2016-05-26T00:20:26.050Z,13.48
2016-05-26T00:20:35.972Z,13.44
2016-05-26T00:20:46.081Z,13.46
2016-05-26T00:20:56.034Z,13.48
2016-05-26T00:21:06.036Z,13.42
2016-05-26T00:21:16.005Z,13.41
2016-05-26T00:21:26.083Z,13.32
2016-05-26T00:21:36.021Z,13.45
2016-05-26T00:21:46.099Z,13.39
2016-05-26T00:21:56.052Z,13.38
2016-05-26T00:22:06.149Z,13.38
2016-05-26T00:22:16.118Z,13.38
2016-05-26T00:22:26.086Z,13.41
2016-05-26T00:22:35.946Z,13.36
2016-05-26T00:22:46.118Z,13.36
2016-05-26T00:22:56.086Z,13.36
2016-05-26T00:23:05.996Z,13.39
2016-05-26T00:23:16.074Z,13.36
2016-05-26T00:23:26.183Z,13.32
2016-05-26T00:23:36.105Z,13.29
2016-05-26T00:23:46.183Z,13.36
2016-05-26T00:23:56.027Z,13.19
2016-05-26T00:24:06.044Z,13.32
2016-05-26T00:24:16.044Z,13.28
2016-05-26T00:24:26.060Z,13.2
2016-05-26T00:24:36.060Z,13.3
2016-05-26T00:24:46.060Z,13.26
2016-05-26T00:24:56.060Z,13.19
2016-05-26T00:25:06.063Z,13.22
2016-05-26T00:25:16.079Z,13.29
2016-05-26T00:25:26.110Z,13.26
2016-05-26T00:25:36.079Z,13.17
2016-05-26T00:25:46.079Z,13.3
2016-05-26T00:25:56.094Z,13.19
2016-05-26T00:26:06.096Z,13.23
2016-05-26T00:26:16.112Z,13.23
2016-05-26T00:26:26.112Z,13.17
2016-05-26T00:26:36.112Z,13.12
2016-05-26T00:26:46.143Z,13.19
2016-05-26T00:26:55.971Z,13.2
2016-05-26T00:27:06.131Z,13.2
2016-05-26T00:27:16.146Z,13.22
2016-05-26T00:27:26.146Z,13.22
2016-05-26T00:27:36.146Z,13.19
2016-05-26T00:27:46.146Z,13.17
2016-05-26T00:27:56.146Z,13.12
2016-05-26T00:28:06.180Z,13.12
2016-05-26T00:28:16.165Z,13.14
2016-05-26T00:28:26.165Z,13.1
2016-05-26T00:28:36.180Z,13.14
2016-05-26T00:28:46.180Z,13.15
2016-05-26T00:28:56.180Z,13.2
2016-05-26T00:29:06.198Z,13.15
2016-05-26T00:29:16.198Z,13.14
2016-05-26T00:29:26.198Z,13.15
2016-05-26T00:29:36.214Z,13.03
2016-05-26T00:29:46.057Z,13.01
2016-05-26T00:29:56.214Z,13.03
2016-05-26T00:30:06.217Z,13.04
2016-05-26T00:30:16.232Z,13.03
2016-05-26T00:30:26.232Z,13.03
2016-05-26T00:30:36.232Z,13.05
2016-05-26T00:30:46.248Z,13.07
2016-05-26T00:30:56.264Z,13.05
2016-05-26T00:31:06.251Z,13.07
2016-05-26T00:31:16.251Z,13.04
2016-05-26T00:31:26.267Z,13.04
2016-05-26T00:31:36.267Z,13.04
2016-05-26T00:31:46.267Z,13.01
2016-05-26T00:31:56.126Z,13.01
2016-05-26T00:32:06.284Z,12.97
2016-05-26T00:32:16.144Z,13
2016-05-26T00:32:26.144Z,12.96
2016-05-26T00:32:36.315Z,12.97
2016-05-26T00:32:46.659Z,12.95
2016-05-26T00:32:56.315Z,13.01
2016-05-26T00:33:06.318Z,13.03
2016-05-26T00:33:16.178Z,12.97
2016-05-26T00:33:26.334Z,13
2016-05-26T00:33:36.334Z,13.01
2016-05-26T00:33:46.350Z,12.95
2016-05-26T00:33:56.193Z,13
2016-05-26T00:34:06.353Z,12.97
2016-05-26T00:34:16.196Z,12.9
2016-05-26T00:34:26.353Z,12.96
2016-05-26T00:34:36.368Z,12.93
2016-05-26T00:34:46.368Z,13
2016-05-26T00:34:56.368Z,12.89
2016-05-26T00:35:06.387Z,13.03
2016-05-26T00:35:16.231Z,12.89
2016-05-26T00:35:26.231Z,12.89
2016-05-26T00:35:36.387Z,12.87
2016-05-26T00:35:46.403Z,12.93
2016-05-26T00:35:56.403Z,12.93
2016-05-26T00:36:06.406Z,12.96
2016-05-26T00:36:16.406Z,12.89
2016-05-26T00:36:26.421Z,12.9
2016-05-26T00:36:36.421Z,12.89
2016-05-26T00:36:46.437Z,12.96
2016-05-26T00:36:56.281Z,12.89
2016-05-26T00:37:06.299Z,12.86
2016-05-26T00:37:16.455Z,12.85
2016-05-26T00:37:26.455Z,12.93
2016-05-26T00:37:36.455Z,12.82
2016-05-26T00:37:46.471Z,12.87
2016-05-26T00:37:56.471Z,12.9
2016-05-26T00:38:06.473Z,12.9
2016-05-26T00:38:16.473Z,12.9
2016-05-26T00:38:26.473Z,12.85
2016-05-26T00:38:36.489Z,12.86
2016-05-26T00:38:46.489Z,12.86
2016-05-26T00:38:56.504Z,12.89
2016-05-26T00:39:06.507Z,12.87
2016-05-26T00:39:16.507Z,12.82
2016-05-26T00:39:26.523Z,12.85
2016-05-26T00:39:36.523Z,12.89
2016-05-26T00:39:46.523Z,12.78
2016-05-26T00:39:56.523Z,12.78
2016-05-26T00:40:06.541Z,12.77
2016-05-26T00:40:16.556Z,12.86
2016-05-26T00:40:26.541Z,12.85
2016-05-26T00:40:36.556Z,12.87
2016-05-26T00:40:46.400Z,12.78
2016-05-26T00:40:56.572Z,12.82
2016-05-26T00:41:06.575Z,12.85
2016-05-26T00:41:16.575Z,12.9
2016-05-26T00:41:26.575Z,12.78
2016-05-26T00:41:36.575Z,12.78
2016-05-26T00:41:46.575Z,12.83
2016-05-26T00:41:56.590Z,12.79
2016-05-26T00:42:06.593Z,12.79
2016-05-26T00:42:16.609Z,12.78
2016-05-26T00:42:26.609Z,12.82
2016-05-26T00:42:36.609Z,12.83
2016-05-26T00:42:46.640Z,12.77
2016-05-26T00:42:56.625Z,12.78
2016-05-26T00:43:06.627Z,12.78
2016-05-26T00:43:16.642Z,12.83
2016-05-26T00:43:26.486Z,12.75
2016-05-26T00:43:36.674Z,12.72
2016-05-26T00:43:46.642Z,12.83
2016-05-26T00:43:56.642Z,12.83
2016-05-26T00:44:06.661Z,12.79
2016-05-26T00:44:16.661Z,12.78
2016-05-26T00:44:26.677Z,12.77
2016-05-26T00:44:36.677Z,12.79
2016-05-26T00:44:46.677Z,12.78
2016-05-26T00:44:56.677Z,12.72
2016-05-26T00:45:06.694Z,12.72
2016-05-26T00:45:16.694Z,12.72
2016-05-26T00:45:26.694Z,12.78
2016-05-26T00:45:36.554Z,12.74
2016-05-26T00:45:46.710Z,12.77
2016-05-26T00:45:56.710Z,12.77
2016-05-26T00:46:06.728Z,12.74
2016-05-26T00:46:16.728Z,12.74
2016-05-26T00:46:26.728Z,12.72
2016-05-26T00:46:36.728Z,12.78
2016-05-26T00:46:46.744Z,12.75
2016-05-26T00:46:56.744Z,12.71
2016-05-26T00:47:06.747Z,12.82
2016-05-26T00:47:16.763Z,12.75
2016-05-26T00:47:26.763Z,12.77
2016-05-26T00:47:37.185Z,12.75
2016-05-26T00:47:46.778Z,12.77
2016-05-26T00:47:56.638Z,12.75
2016-05-26T00:48:07.266Z,12.72
2016-05-26T00:48:17.203Z,12.68
2016-05-26T00:48:26.797Z,12.75
2016-05-26T00:48:36.813Z,12.7
2016-05-26T00:48:46.813Z,12.7
2016-05-26T00:48:56.813Z,12.71
2016-05-26T00:49:06.815Z,12.68
2016-05-26T00:49:16.815Z,12.65
2016-05-26T00:49:26.830Z,12.71
2016-05-26T00:49:36.830Z,12.7
2016-05-26T00:49:46.830Z,12.7
2016-05-26T00:49:56.846Z,12.68
2016-05-26T00:50:06.849Z,12.65
2016-05-26T00:50:16.849Z,12.68
2016-05-26T00:50:26.849Z,12.64
2016-05-26T00:50:36.864Z,12.65
2016-05-26T00:50:46.864Z,12.64
2016-05-26T00:50:56.864Z,12.6
2016-05-26T00:51:06.883Z,12.71
2016-05-26T00:51:16.883Z,12.56
2016-05-26T00:51:26.883Z,12.57
2016-05-26T00:51:36.883Z,12.59
2016-05-26T00:51:46.899Z,12.57
2016-05-26T00:51:56.899Z,12.6
2016-05-26T00:52:06.901Z,12.59
2016-05-26T00:52:16.916Z,12.59
2016-05-26T00:52:26.916Z,12.56
2016-05-26T00:52:36.916Z,12.59
2016-05-26T00:52:46.776Z,12.56
2016-05-26T00:52:56.932Z,12.59
2016-05-26T00:53:06.935Z,12.52
2016-05-26T00:53:16.935Z,12.64
2016-05-26T00:53:26.951Z,12.52
2016-05-26T00:53:36.951Z,12.62
2016-05-26T00:53:46.951Z,12.53
2016-05-26T00:53:56.951Z,12.54
2016-05-26T00:54:06.969Z,12.56
2016-05-26T00:54:16.969Z,12.53
2016-05-26T00:54:26.985Z,12.49
2016-05-26T00:54:36.985Z,12.52
2016-05-26T00:54:46.985Z,12.5
2016-05-26T00:54:57.000Z,12.57
2016-05-26T00:55:07.002Z,12.5
2016-05-26T00:55:17.002Z,12.49
2016-05-26T00:55:27.002Z,12.5
2016-05-26T00:55:37.018Z,12.46
2016-05-26T00:55:47.018Z,12.56
2016-05-26T00:55:57.018Z,12.53
2016-05-26T00:56:07.037Z,12.42
2016-05-26T00:56:17.037Z,12.46
2016-05-26T00:56:27.037Z,12.47
2016-05-26T00:56:37.037Z,12.52
2016-05-26T00:56:47.068Z,12.52
2016-05-26T00:56:57.052Z,12.46
2016-05-26T00:57:07.055Z,12.5
2016-05-26T00:57:17.055Z,12.46
2016-05-26T00:57:27.087Z,12.42
2016-05-26T00:57:37.071Z,12.47
2016-05-26T00:57:47.087Z,12.49
2016-05-26T00:57:57.087Z,12.47
2016-05-26T00:58:07.090Z,12.46
2016-05-26T00:58:17.105Z,12.45
2016-05-26T00:58:27.105Z,12.42
2016-05-26T00:58:37.121Z,12.46
2016-05-26T00:58:47.105Z,12.45
2016-05-26T00:58:57.121Z,12.42
2016-05-26T00:59:07.123Z,12.52
2016-05-26T00:59:17.123Z,12.45
2016-05-26T00:59:27.123Z,12.5
2016-05-26T00:59:37.138Z,12.42
2016-05-26T00:59:47.138Z,12.42
2016-05-26T00:59:57.154Z,12.46
2016-05-26T01:00:07.157Z,12.5
2016-05-26T01:00:17.157Z,12.42
2016-05-26T01:00:27.157Z,12.46
2016-05-26T01:00:37.173Z,12.47
2016-05-26T01:00:47.173Z,12.46
2016-05-26T01:00:57.016Z,12.49
2016-05-26T01:01:07.176Z,12.5
2016-05-26T01:01:17.035Z,12.5
2016-05-26T01:01:27.191Z,12.42
2016-05-26T01:01:37.207Z,12.5
2016-05-26T01:01:47.207Z,12.5
2016-05-26T01:01:57.207Z,12.53
2016-05-26T01:02:07.209Z,12.41
2016-05-26T01:02:17.225Z,12.45
2016-05-26T01:02:27.225Z,12.52
2016-05-26T01:02:37.318Z,12.47
2016-05-26T01:02:47.084Z,12.46
2016-05-26T01:02:57.271Z,12.47
2016-05-26T01:03:07.103Z,12.56
2016-05-26T01:03:17.259Z,12.49
2016-05-26T01:03:27.149Z,12.46
2016-05-26T01:03:37.259Z,12.42
2016-05-26T01:03:47.274Z,12.38
2016-05-26T01:03:57.274Z,12.54
2016-05-26T01:04:07.277Z,12.42
2016-05-26T01:04:17.293Z,12.5
2016-05-26T01:04:27.277Z,12.47
2016-05-26T01:04:37.293Z,12.52
2016-05-26T01:04:47.293Z,12.54
2016-05-26T01:04:57.309Z,12.52
2016-05-26T01:05:07.312Z,12.53
2016-05-26T01:05:17.155Z,12.5
2016-05-26T01:05:27.312Z,12.46
2016-05-26T01:05:37.312Z,12.37
2016-05-26T01:05:47.327Z,12.39
2016-05-26T01:05:57.327Z,12.41
2016-05-26T01:06:07.345Z,12.47
2016-05-26T01:06:17.345Z,12.39
2016-05-26T01:06:27.345Z,12.5
2016-05-26T01:06:37.345Z,12.46
2016-05-26T01:06:47.361Z,12.53
2016-05-26T01:06:57.361Z,12.39
2016-05-26T01:07:07.364Z,12.49
2016-05-26T01:07:17.379Z,12.49
2016-05-26T01:07:27.379Z,12.47
2016-05-26T01:07:37.379Z,12.47
2016-05-26T01:07:47.395Z,12.52
2016-05-26T01:07:57.239Z,12.5
2016-05-26T01:08:07.397Z,12.38
2016-05-26T01:08:17.412Z,12.47
2016-05-26T01:08:27.412Z,12.46
2016-05-26T01:08:37.412Z,12.53
2016-05-26T01:08:47.412Z,12.52
2016-05-26T01:08:57.428Z,12.49
2016-05-26T01:09:07.431Z,12.47
2016-05-26T01:09:17.290Z,12.38
2016-05-26T01:09:27.431Z,12.46
2016-05-26T01:09:37.447Z,12.52
2016-05-26T01:09:47.290Z,12.53
2016-05-26T01:09:57.447Z,12.41
2016-05-26T01:10:07.450Z,12.53
2016-05-26T01:10:17.481Z,12.49
2016-05-26T01:10:27.481Z,12.41
2016-05-26T01:10:37.481Z,12.47
2016-05-26T01:10:47.481Z,12.46
2016-05-26T01:10:57.481Z,12.46
2016-05-26T01:11:07.327Z,12.53
2016-05-26T01:11:17.499Z,12.47
2016-05-26T01:11:27.342Z,12.5
2016-05-26T01:11:37.499Z,12.49
2016-05-26T01:11:47.499Z,12.38
2016-05-26T01:11:57.514Z,12.49
2016-05-26T01:12:07.518Z,12.45
2016-05-26T01:12:17.518Z,12.5
2016-05-26T01:12:27.534Z,12.41
2016-05-26T01:12:37.534Z,12.46
2016-05-26T01:12:47.534Z,12.5
2016-05-26T01:12:57.549Z,12.45
2016-05-26T01:13:07.567Z,12.47
2016-05-26T01:13:17.551Z,12.47
2016-05-26T01:13:27.567Z,12.52
2016-05-26T01:13:37.567Z,12.47
2016-05-26T01:13:47.583Z,12.53
2016-05-26T01:13:57.583Z,12.53
2016-05-26T01:14:07.585Z,12.39
2016-05-26T01:14:17.585Z,12.46
2016-05-26T01:14:27.585Z,12.45
2016-05-26T01:14:37.600Z,12.5
2016-05-26T01:14:47.600Z,12.47
2016-05-26T01:14:57.600Z,12.47
2016-05-26T01:15:07.619Z,12.53
2016-05-26T01:15:17.619Z,12.47
2016-05-26T01:15:27.635Z,12.5
2016-05-26T01:15:37.635Z,12.45
2016-05-26T01:15:47.635Z,12.46
2016-05-26T01:15:57.650Z,12.56
2016-05-26T01:16:07.638Z,12.46
2016-05-26T01:16:17.653Z,12.49
2016-05-26T01:16:27.653Z,12.67
2016-05-26T01:16:37.653Z,12.47
2016-05-26T01:16:47.653Z,12.47
2016-05-26T01:16:57.669Z,12.45
2016-05-26T01:17:07.672Z,12.45
2016-05-26T01:17:17.672Z,12.45
2016-05-26T01:17:27.687Z,12.5
2016-05-26T01:17:37.531Z,12.42
2016-05-26T01:17:47.906Z,12.45
2016-05-26T01:17:58.018Z,12.62
2016-05-26T01:18:07.705Z,12.5
2016-05-26T01:18:17.924Z,12.42
2016-05-26T01:18:27.971Z,12.45
2016-05-26T01:18:37.721Z,12.46
2016-05-26T01:18:47.564Z,12.49
2016-05-26T01:18:57.721Z,12.46
2016-05-26T01:19:07.739Z,12.42
2016-05-26T01:19:17.739Z,12.46
2016-05-26T01:19:27.739Z,12.45
2016-05-26T01:19:37.755Z,12.46
2016-05-26T01:19:47.755Z,12.47
2016-05-26T01:19:57.755Z,12.49
2016-05-26T01:20:07.774Z,12.49
2016-05-26T01:20:17.774Z,12.47
2016-05-26T01:20:27.774Z,12.47
2016-05-26T01:20:37.789Z,12.5
2016-05-26T01:20:47.789Z,12.49
2016-05-26T01:20:57.789Z,12.57
2016-05-26T01:21:07.792Z,12.47
2016-05-26T01:21:17.808Z,12.56
2016-05-26T01:21:27.808Z,12.47
2016-05-26T01:21:37.808Z,12.56
2016-05-26T01:21:47.808Z,12.6
2016-05-26T01:21:57.823Z,12.49
2016-05-26T01:22:07.825Z,12.53
2016-05-26T01:22:17.825Z,12.52
2016-05-26T01:22:27.825Z,12.5
2016-05-26T01:22:37.841Z,12.54
2016-05-26T01:22:47.841Z,12.56
2016-05-26T01:22:57.841Z,12.47
2016-05-26T01:23:07.859Z,12.5
2016-05-26T01:23:17.859Z,12.47
2016-05-26T01:23:27.874Z,12.47
2016-05-26T01:23:37.874Z,12.52
2016-05-26T01:23:47.890Z,12.57
2016-05-26T01:23:57.874Z,12.52
2016-05-26T01:24:07.878Z,12.59
2016-05-26T01:24:17.894Z,12.52
2016-05-26T01:24:27.894Z,12.53
2016-05-26T01:24:37.910Z,12.56
2016-05-26T01:24:47.910Z,12.62
2016-05-26T01:24:57.910Z,12.52
2016-05-26T01:25:07.927Z,12.54
2016-05-26T01:25:17.927Z,12.59
2016-05-26T01:25:27.927Z,12.6
2016-05-26T01:25:37.927Z,12.56
2016-05-26T01:25:47.927Z,12.62
2016-05-26T01:25:57.943Z,12.57
2016-05-26T01:26:07.946Z,12.64
2016-05-26T01:26:17.961Z,12.65
2016-05-26T01:26:27.961Z,12.56
2016-05-26T01:26:37.961Z,12.64
2016-05-26T01:26:47.977Z,12.62
2016-05-26T01:26:57.977Z,12.56
2016-05-26T01:27:07.979Z,12.59
2016-05-26T01:27:17.979Z,12.6
2016-05-26T01:27:27.979Z,12.62
2016-05-26T01:27:37.995Z,12.6
2016-05-26T01:27:47.995Z,12.6
2016-05-26T01:27:58.010Z,12.59
2016-05-26T01:28:08.013Z,12.64
2016-05-26T01:28:17.857Z,12.62
2016-05-26T01:28:28.013Z,12.62
2016-05-26T01:28:37.873Z,12.56
2016-05-26T01:28:48.029Z,12.59
2016-05-26T01:28:58.029Z,12.65
2016-05-26T01:29:08.032Z,12.71
2016-05-26T01:29:18.048Z,12.62
2016-05-26T01:29:28.048Z,12.67
2016-05-26T01:29:38.063Z,12.62
2016-05-26T01:29:48.063Z,12.72
2016-05-26T01:29:58.063Z,12.68
2016-05-26T01:30:08.065Z,12.72
2016-05-26T01:30:18.081Z,12.67
2016-05-26T01:30:27.925Z,12.7
2016-05-26T01:30:38.081Z,12.67
2016-05-26T01:30:48.096Z,12.65
2016-05-26T01:30:58.096Z,12.7
2016-05-26T01:31:08.100Z,12.67
2016-05-26T01:31:18.116Z,12.71
2016-05-26T01:31:28.132Z,12.68
2016-05-26T01:31:37.960Z,12.72
2016-05-26T01:31:48.147Z,12.7
2016-05-26T01:31:58.116Z,12.7
2016-05-26T01:32:08.134Z,12.7
2016-05-26T01:32:18.134Z,12.68
2016-05-26T01:32:27.977Z,12.7
2016-05-26T01:32:38.149Z,12.7
2016-05-26T01:32:48.540Z,12.68
2016-05-26T01:32:58.009Z,12.71
2016-05-26T01:33:08.184Z,12.74
2016-05-26T01:33:18.184Z,12.75
2016-05-26T01:33:28.184Z,12.77
2016-05-26T01:33:38.027Z,12.77
2016-05-26T01:33:48.184Z,12.75
2016-05-26T01:33:58.184Z,12.78
2016-05-26T01:34:08.201Z,12.74
2016-05-26T01:34:18.201Z,12.77
2016-05-26T01:34:28.201Z,12.77
2016-05-26T01:34:38.201Z,12.77
2016-05-26T01:34:48.201Z,12.74
2016-05-26T01:34:58.061Z,12.74
2016-05-26T01:35:08.220Z,12.78
2016-05-26T01:35:18.235Z,12.77
2016-05-26T01:35:28.235Z,12.82
2016-05-26T01:35:38.235Z,12.77
2016-05-26T01:35:48.235Z,12.83
2016-05-26T01:35:58.251Z,12.83
2016-05-26T01:36:08.098Z,12.82
2016-05-26T01:36:18.098Z,12.78
2016-05-26T01:36:28.113Z,12.78
2016-05-26T01:36:38.270Z,12.83
2016-05-26T01:36:48.113Z,12.75
2016-05-26T01:36:58.285Z,12.75
2016-05-26T01:37:08.132Z,12.78
2016-05-26T01:37:18.288Z,12.79
2016-05-26T01:37:28.288Z,12.78
2016-05-26T01:37:38.304Z,12.79
2016-05-26T01:37:48.304Z,12.79
2016-05-26T01:37:58.304Z,12.74
2016-05-26T01:38:08.323Z,12.79
2016-05-26T01:38:18.166Z,12.83
2016-05-26T01:38:28.323Z,12.79
2016-05-26T01:38:38.323Z,12.78
2016-05-26T01:38:48.338Z,12.78
2016-05-26T01:38:58.182Z,12.77
2016-05-26T01:39:08.356Z,12.82
2016-05-26T01:39:18.200Z,12.78
2016-05-26T01:39:28.200Z,12.75
2016-05-26T01:39:38.200Z,12.78
2016-05-26T01:39:48.387Z,12.79
2016-05-26T01:39:58.371Z,12.75
2016-05-26T01:40:08.374Z,12.79
2016-05-26T01:40:18.374Z,12.79
2016-05-26T01:40:28.390Z,12.75
2016-05-26T01:40:38.390Z,12.82
2016-05-26T01:40:48.390Z,12.85
2016-05-26T01:40:58.406Z,12.83
2016-05-26T01:41:08.408Z,12.75
2016-05-26T01:41:18.408Z,12.77
2016-05-26T01:41:28.423Z,12.74
2016-05-26T01:41:38.423Z,12.75
2016-05-26T01:41:48.439Z,12.77
2016-05-26T01:41:58.423Z,12.77
2016-05-26T01:42:08.442Z,12.74
2016-05-26T01:42:18.286Z,12.72
2016-05-26T01:42:28.442Z,12.75
2016-05-26T01:42:38.442Z,12.77
2016-05-26T01:42:48.458Z,12.75
2016-05-26T01:42:58.458Z,12.77
2016-05-26T01:43:08.461Z,12.74
2016-05-26T01:43:18.476Z,12.74
2016-05-26T01:43:28.476Z,12.77
2016-05-26T01:43:38.476Z,12.77
2016-05-26T01:43:48.492Z,12.75
2016-05-26T01:43:58.492Z,12.75
2016-05-26T01:44:08.494Z,12.78
2016-05-26T01:44:18.494Z,12.74
2016-05-26T01:44:28.353Z,12.79
2016-05-26T01:44:38.509Z,12.75
2016-05-26T01:44:48.525Z,12.74
2016-05-26T01:44:58.369Z,12.82
2016-05-26T01:45:08.528Z,12.77
2016-05-26T01:45:18.653Z,12.79
2016-05-26T01:45:28.794Z,12.79
2016-05-26T01:45:38.653Z,12.79
2016-05-26T01:45:48.606Z,12.75
2016-05-26T01:45:58.106Z,12.75
2016-05-26T01:46:08.561Z,12.78
2016-05-26T01:46:18.639Z,12.79
2016-05-26T01:46:28.655Z,12.75
2016-05-26T01:46:38.655Z,12.78
2016-05-26T01:46:48.702Z,12.78
2016-05-26T01:46:58.577Z,12.85
2016-05-26T01:47:22.799Z,12.82
2016-05-26T01:47:27.971Z,12.74
2016-05-26T01:47:38.033Z,12.79
2016-05-26T01:47:47.439Z,12.77
2016-05-26T01:47:57.392Z,12.77
2016-05-26T01:48:07.192Z,12.79
2016-05-26T01:48:17.349Z,12.78
2016-05-26T01:48:27.364Z,12.86
2016-05-26T01:48:37.364Z,12.86
2016-05-26T01:48:47.208Z,12.83
2016-05-26T01:48:57.380Z,12.83
2016-05-26T01:49:07.382Z,12.82
2016-05-26T01:49:17.382Z,12.82
2016-05-26T01:49:27.397Z,12.89
2016-05-26T01:49:37.397Z,12.72
2016-05-26T01:49:47.397Z,12.92
2016-05-26T01:49:57.257Z,12.83
2016-05-26T01:50:07.400Z,12.89
2016-05-26T01:50:17.416Z,12.9
2016-05-26T01:50:27.416Z,12.89
2016-05-26T01:50:37.416Z,12.85
2016-05-26T01:50:47.275Z,12.87
2016-05-26T01:50:57.447Z,12.83
2016-05-26T01:51:07.435Z,12.87
2016-05-26T01:51:17.450Z,12.83
2016-05-26T01:51:27.450Z,12.87
2016-05-26T01:51:37.450Z,12.92
2016-05-26T01:51:47.466Z,12.85
2016-05-26T01:51:57.482Z,12.85
2016-05-26T01:52:07.469Z,12.85
2016-05-26T01:52:17.485Z,12.85
2016-05-26T01:52:27.485Z,12.85
2016-05-26T01:52:37.485Z,12.87
2016-05-26T01:52:47.500Z,12.89
2016-05-26T01:52:57.485Z,12.86
2016-05-26T01:53:07.347Z,12.89
2016-05-26T01:53:17.503Z,12.86
2016-05-26T01:53:27.363Z,12.89
2016-05-26T01:53:37.519Z,12.85
2016-05-26T01:53:47.519Z,12.92
2016-05-26T01:53:57.519Z,12.97
2016-05-26T01:54:07.536Z,12.93
2016-05-26T01:54:17.536Z,12.96
2016-05-26T01:54:27.552Z,12.93
2016-05-26T01:54:37.552Z,12.85
2016-05-26T01:54:47.396Z,12.87
2016-05-26T01:54:57.552Z,12.9
2016-05-26T01:55:07.555Z,12.9
2016-05-26T01:55:17.571Z,12.95
2016-05-26T01:55:27.571Z,12.85
2016-05-26T01:55:37.586Z,12.87
2016-05-26T01:55:47.571Z,12.89
2016-05-26T01:55:57.586Z,12.83
2016-05-26T01:56:07.589Z,12.82
2016-05-26T01:56:17.605Z,12.85
2016-05-26T01:56:27.449Z,12.95
2016-05-26T01:56:37.605Z,12.93
2016-05-26T01:56:47.605Z,12.93
2016-05-26T01:56:57.621Z,12.93
2016-05-26T01:57:07.624Z,12.86
2016-05-26T01:57:17.624Z,12.82
2016-05-26T01:57:27.624Z,12.93
2016-05-26T01:57:37.733Z,12.89
2016-05-26T01:57:47.795Z,12.93
2016-05-26T01:57:57.702Z,12.9
2016-05-26T01:58:07.751Z,12.89
2016-05-26T01:58:17.844Z,12.9
2016-05-26T01:58:27.719Z,12.92
2016-05-26T01:58:37.751Z,12.96
2016-05-26T01:58:47.860Z,12.85
2016-05-26T01:58:57.782Z,12.89
2016-05-26T01:59:07.816Z,12.96
2016-05-26T01:59:17.800Z,12.96
2016-05-26T01:59:27.879Z,12.95
2016-05-26T01:59:37.832Z,12.96
2016-05-26T01:59:47.847Z,12.95
2016-05-26T01:59:57.847Z,12.93
2016-05-26T02:00:07.881Z,12.9
2016-05-26T02:00:17.881Z,13.01
2016-05-26T02:00:27.818Z,12.82
2016-05-26T02:00:37.568Z,12.95
2016-05-26T02:00:47.740Z,12.97
2016-05-26T02:00:57.740Z,12.92
2016-05-26T02:01:07.743Z,13
2016-05-26T02:01:17.759Z,12.9
2016-05-26T02:01:27.759Z,12.85
2016-05-26T02:01:38.165Z,12.92
2016-05-26T02:01:47.805Z,12.9
2016-05-26T02:01:57.774Z,12.9
2016-05-26T02:02:07.777Z,13.01
2016-05-26T02:02:17.621Z,12.89
2016-05-26T02:02:27.793Z,12.92
2016-05-26T02:02:37.793Z,12.97
2016-05-26T02:02:47.808Z,12.93
2016-05-26T02:02:57.855Z,12.95
2016-05-26T02:03:07.889Z,12.92
2016-05-26T02:03:17.670Z,12.95
2016-05-26T02:03:27.810Z,12.97
2016-05-26T02:03:37.826Z,12.97
2016-05-26T02:03:47.826Z,12.95
2016-05-26T02:03:57.842Z,12.9
2016-05-26T02:04:07.845Z,12.9
2016-05-26T02:04:17.688Z,12.87
2016-05-26T02:04:27.845Z,13.03
2016-05-26T02:04:37.845Z,12.86
2016-05-26T02:04:47.860Z,12.93
2016-05-26T02:04:57.860Z,12.93
2016-05-26T02:05:07.862Z,12.96
2016-05-26T02:05:17.878Z,13.01
2016-05-26T02:05:27.878Z,12.92
2016-05-26T02:05:38.175Z,12.96
2016-05-26T02:05:47.894Z,12.87
2016-05-26T02:05:57.737Z,13.01
2016-05-26T02:06:07.898Z,12.92
2016-05-26T02:06:17.757Z,12.92
2016-05-26T02:06:27.913Z,12.96
2016-05-26T02:06:37.913Z,13.01
2016-05-26T02:06:47.913Z,12.9
2016-05-26T02:06:57.929Z,13.05
2016-05-26T02:07:07.931Z,12.93
2016-05-26T02:07:17.931Z,12.95
2016-05-26T02:07:27.931Z,13.03
2016-05-26T02:07:37.946Z,13
2016-05-26T02:07:47.946Z,13.04
2016-05-26T02:07:57.962Z,12.93
2016-05-26T02:08:07.809Z,13
2016-05-26T02:08:17.965Z,13
2016-05-26T02:08:27.965Z,13
2016-05-26T02:08:37.965Z,12.97
2016-05-26T02:08:47.981Z,13.03
2016-05-26T02:08:57.981Z,13.07
2016-05-26T02:09:07.983Z,13.03
2016-05-26T02:09:17.998Z,13
2016-05-26T02:09:27.998Z,13.01